sensor_id;sensor_type;location;lat;lon;timestamp;P1;durP1;ratioP1;P2;durP2;ratioP2
76939;SDS011;65885;55.848;35.916;2023-04-06T00:01:20;3.50;;;2.40;;
76939;SDS011;65885;55.848;35.916;2023-04-06T00:03:48;3.83;;;2.33;;
76939;SDS011;65885;55.848;35.916;2023-04-06T00:06:16;2.85;;;2.38;;
76939;SDS011;65885;55.848;35.916;2023-04-06T00:08:45;4.88;;;2.70;;
76939;SDS011;65885;55.848;35.916;2023-04-06T00:11:13;3.90;;;2.72;;
76939;SDS011;65885;55.848;35.916;2023-04-06T00:13:42;4.13;;;2.50;;
76939;SDS011;65885;55.848;35.916;2023-04-06T00:16:09;6.57;;;3.22;;
76939;SDS011;65885;55.848;35.916;2023-04-06T00:18:37;4.72;;;3.03;;
76939;SDS011;65885;55.848;35.916;2023-04-06T00:21:04;5.10;;;3.22;;
76939;SDS011;65885;55.848;35.916;2023-04-06T00:23:32;4.72;;;3.35;;
76939;SDS011;65885;55.848;35.916;2023-04-06T00:26:01;4.30;;;2.90;;
76939;SDS011;65885;55.848;35.916;2023-04-06T00:28:28;4.90;;;3.72;;
76939;SDS011;65885;55.848;35.916;2023-04-06T00:30:55;5.97;;;3.65;;
76939;SDS011;65885;55.848;35.916;2023-04-06T00:33:23;5.07;;;3.40;;
76939;SDS011;65885;55.848;35.916;2023-04-06T00:35:51;5.63;;;3.40;;
76939;SDS011;65885;55.848;35.916;2023-04-06T00:38:18;4.57;;;3.03;;
76939;SDS011;65885;55.848;35.916;2023-04-06T00:40:46;5.57;;;3.47;;
76939;SDS011;65885;55.848;35.916;2023-04-06T00:43:15;5.65;;;3.38;;
76939;SDS011;65885;55.848;35.916;2023-04-06T00:45:43;6.15;;;3.58;;
76939;SDS011;65885;55.848;35.916;2023-04-06T00:48:10;6.47;;;3.83;;
76939;SDS011;65885;55.848;35.916;2023-04-06T00:50:38;5.93;;;4.03;;
76939;SDS011;65885;55.848;35.916;2023-04-06T00:53:06;6.50;;;4.00;;
76939;SDS011;65885;55.848;35.916;2023-04-06T00:55:33;7.35;;;4.03;;
76939;SDS011;65885;55.848;35.916;2023-04-06T00:58:01;7.05;;;3.85;;
76939;SDS011;65885;55.848;35.916;2023-04-06T01:00:30;4.57;;;3.50;;
76939;SDS011;65885;55.848;35.916;2023-04-06T01:02:59;7.25;;;4.28;;
76939;SDS011;65885;55.848;35.916;2023-04-06T01:05:34;8.38;;;4.25;;
76939;SDS011;65885;55.848;35.916;2023-04-06T01:08:05;5.85;;;4.28;;
76939;SDS011;65885;55.848;35.916;2023-04-06T01:10:33;4.63;;;3.45;;
76939;SDS011;65885;55.848;35.916;2023-04-06T01:13:00;5.80;;;3.60;;
76939;SDS011;65885;55.848;35.916;2023-04-06T01:15:28;6.50;;;3.85;;
76939;SDS011;65885;55.848;35.916;2023-04-06T01:17:56;6.25;;;4.28;;
76939;SDS011;65885;55.848;35.916;2023-04-06T01:20:24;5.57;;;4.18;;
76939;SDS011;65885;55.848;35.916;2023-04-06T01:22:53;7.90;;;4.63;;
76939;SDS011;65885;55.848;35.916;2023-04-06T01:25:20;5.57;;;4.68;;
76939;SDS011;65885;55.848;35.916;2023-04-06T01:27:48;5.72;;;3.50;;
76939;SDS011;65885;55.848;35.916;2023-04-06T01:30:15;5.50;;;4.03;;
76939;SDS011;65885;55.848;35.916;2023-04-06T01:32:43;6.93;;;4.30;;
76939;SDS011;65885;55.848;35.916;2023-04-06T01:35:11;7.18;;;4.38;;
76939;SDS011;65885;55.848;35.916;2023-04-06T01:37:39;7.65;;;4.85;;
76939;SDS011;65885;55.848;35.916;2023-04-06T01:40:09;5.85;;;4.88;;
76939;SDS011;65885;55.848;35.916;2023-04-06T01:42:38;7.45;;;4.45;;
76939;SDS011;65885;55.848;35.916;2023-04-06T01:45:06;6.93;;;4.07;;
76939;SDS011;65885;55.848;35.916;2023-04-06T01:47:34;7.70;;;4.22;;
76939;SDS011;65885;55.848;35.916;2023-04-06T01:50:02;7.20;;;4.15;;
76939;SDS011;65885;55.848;35.916;2023-04-06T01:52:32;8.35;;;5.18;;
76939;SDS011;65885;55.848;35.916;2023-04-06T01:55:00;4.93;;;4.10;;
76939;SDS011;65885;55.848;35.916;2023-04-06T01:57:29;6.47;;;4.38;;
76939;SDS011;65885;55.848;35.916;2023-04-06T01:59:56;5.45;;;4.43;;
76939;SDS011;65885;55.848;35.916;2023-04-06T02:02:24;7.18;;;4.50;;
76939;SDS011;65885;55.848;35.916;2023-04-06T02:04:51;4.85;;;4.00;;
76939;SDS011;65885;55.848;35.916;2023-04-06T02:07:19;5.63;;;3.83;;
76939;SDS011;65885;55.848;35.916;2023-04-06T02:09:46;4.95;;;4.05;;
76939;SDS011;65885;55.848;35.916;2023-04-06T02:12:14;4.47;;;3.60;;
76939;SDS011;65885;55.848;35.916;2023-04-06T02:14:43;5.30;;;3.30;;
76939;SDS011;65885;55.848;35.916;2023-04-06T02:17:14;4.22;;;3.10;;
76939;SDS011;65885;55.848;35.916;2023-04-06T02:19:41;4.20;;;3.50;;
76939;SDS011;65885;55.848;35.916;2023-04-06T02:22:09;5.07;;;3.67;;
76939;SDS011;65885;55.848;35.916;2023-04-06T02:24:36;5.25;;;3.45;;
76939;SDS011;65885;55.848;35.916;2023-04-06T02:27:04;4.63;;;3.53;;
76939;SDS011;65885;55.848;35.916;2023-04-06T02:29:31;5.22;;;3.95;;
76939;SDS011;65885;55.848;35.916;2023-04-06T02:32:00;5.13;;;3.58;;
76939;SDS011;65885;55.848;35.916;2023-04-06T02:34:28;5.38;;;3.50;;
76939;SDS011;65885;55.848;35.916;2023-04-06T02:36:55;5.93;;;3.47;;
76939;SDS011;65885;55.848;35.916;2023-04-06T02:39:23;5.07;;;3.83;;
76939;SDS011;65885;55.848;35.916;2023-04-06T02:41:50;6.55;;;4.13;;
76939;SDS011;65885;55.848;35.916;2023-04-06T02:44:18;5.13;;;3.50;;
76939;SDS011;65885;55.848;35.916;2023-04-06T02:46:45;5.25;;;3.60;;
76939;SDS011;65885;55.848;35.916;2023-04-06T02:49:15;6.13;;;3.80;;
76939;SDS011;65885;55.848;35.916;2023-04-06T02:51:42;6.32;;;3.80;;
76939;SDS011;65885;55.848;35.916;2023-04-06T02:54:10;6.22;;;3.42;;
76939;SDS011;65885;55.848;35.916;2023-04-06T02:56:37;5.03;;;3.20;;
76939;SDS011;65885;55.848;35.916;2023-04-06T02:59:05;5.78;;;3.88;;
76939;SDS011;65885;55.848;35.916;2023-04-06T03:01:32;4.90;;;3.95;;
76939;SDS011;65885;55.848;35.916;2023-04-06T03:04:00;6.75;;;3.92;;
76939;SDS011;65885;55.848;35.916;2023-04-06T03:06:29;6.10;;;3.47;;
76939;SDS011;65885;55.848;35.916;2023-04-06T03:08:57;5.72;;;3.85;;
76939;SDS011;65885;55.848;35.916;2023-04-06T03:11:24;6.60;;;4.60;;
76939;SDS011;65885;55.848;35.916;2023-04-06T03:13:52;5.85;;;4.50;;
76939;SDS011;65885;55.848;35.916;2023-04-06T03:16:20;7.45;;;4.95;;
76939;SDS011;65885;55.848;35.916;2023-04-06T03:18:48;7.03;;;4.30;;
76939;SDS011;65885;55.848;35.916;2023-04-06T03:21:15;5.95;;;4.13;;
76939;SDS011;65885;55.848;35.916;2023-04-06T03:23:44;5.88;;;4.55;;
76939;SDS011;65885;55.848;35.916;2023-04-06T03:26:11;6.60;;;4.50;;
76939;SDS011;65885;55.848;35.916;2023-04-06T03:28:39;8.60;;;4.75;;
76939;SDS011;65885;55.848;35.916;2023-04-06T03:31:07;8.52;;;4.90;;
76939;SDS011;65885;55.848;35.916;2023-04-06T03:33:34;7.75;;;5.00;;
76939;SDS011;65885;55.848;35.916;2023-04-06T03:36:01;6.78;;;4.50;;
76939;SDS011;65885;55.848;35.916;2023-04-06T03:38:29;8.05;;;4.20;;
76939;SDS011;65885;55.848;35.916;2023-04-06T03:40:58;6.85;;;4.88;;
76939;SDS011;65885;55.848;35.916;2023-04-06T03:43:25;6.55;;;4.40;;
76939;SDS011;65885;55.848;35.916;2023-04-06T03:45:53;7.03;;;4.28;;
76939;SDS011;65885;55.848;35.916;2023-04-06T03:48:20;6.07;;;4.03;;
76939;SDS011;65885;55.848;35.916;2023-04-06T03:50:48;7.40;;;5.55;;
76939;SDS011;65885;55.848;35.916;2023-04-06T03:53:15;6.80;;;4.90;;
76939;SDS011;65885;55.848;35.916;2023-04-06T03:55:43;6.85;;;4.35;;
76939;SDS011;65885;55.848;35.916;2023-04-06T03:58:12;7.05;;;4.50;;
76939;SDS011;65885;55.848;35.916;2023-04-06T04:00:40;7.15;;;4.47;;
76939;SDS011;65885;55.848;35.916;2023-04-06T04:03:07;5.78;;;3.70;;
76939;SDS011;65885;55.848;35.916;2023-04-06T04:05:35;7.53;;;5.15;;
76939;SDS011;65885;55.848;35.916;2023-04-06T04:08:02;6.65;;;4.32;;
76939;SDS011;65885;55.848;35.916;2023-04-06T04:10:30;6.20;;;4.25;;
76939;SDS011;65885;55.848;35.916;2023-04-06T04:12:57;5.53;;;4.43;;
76939;SDS011;65885;55.848;35.916;2023-04-06T04:15:26;6.40;;;4.40;;
76939;SDS011;65885;55.848;35.916;2023-04-06T04:17:53;6.97;;;4.47;;
76939;SDS011;65885;55.848;35.916;2023-04-06T04:20:21;7.45;;;4.80;;
76939;SDS011;65885;55.848;35.916;2023-04-06T04:22:48;7.82;;;5.38;;
76939;SDS011;65885;55.848;35.916;2023-04-06T04:25:16;7.95;;;4.43;;
76939;SDS011;65885;55.848;35.916;2023-04-06T04:27:43;6.60;;;4.85;;
76939;SDS011;65885;55.848;35.916;2023-04-06T04:30:10;6.75;;;4.85;;
76939;SDS011;65885;55.848;35.916;2023-04-06T04:32:40;5.93;;;4.20;;
76939;SDS011;65885;55.848;35.916;2023-04-06T04:35:09;6.65;;;5.15;;
76939;SDS011;65885;55.848;35.916;2023-04-06T04:37:38;7.93;;;4.10;;
76939;SDS011;65885;55.848;35.916;2023-04-06T04:40:07;6.40;;;4.65;;
76939;SDS011;65885;55.848;35.916;2023-04-06T04:42:36;6.55;;;5.25;;
76939;SDS011;65885;55.848;35.916;2023-04-06T04:45:04;6.05;;;4.22;;
76939;SDS011;65885;55.848;35.916;2023-04-06T04:47:32;5.82;;;4.82;;
76939;SDS011;65885;55.848;35.916;2023-04-06T04:50:04;6.80;;;4.90;;
76939;SDS011;65885;55.848;35.916;2023-04-06T04:52:32;6.70;;;4.95;;
76939;SDS011;65885;55.848;35.916;2023-04-06T04:54:59;6.97;;;5.25;;
76939;SDS011;65885;55.848;35.916;2023-04-06T04:57:28;5.93;;;4.05;;
76939;SDS011;65885;55.848;35.916;2023-04-06T04:59:57;5.97;;;4.13;;
76939;SDS011;65885;55.848;35.916;2023-04-06T05:02:24;7.30;;;4.30;;
76939;SDS011;65885;55.848;35.916;2023-04-06T05:04:52;5.78;;;4.50;;
76939;SDS011;65885;55.848;35.916;2023-04-06T05:07:21;6.47;;;4.63;;
76939;SDS011;65885;55.848;35.916;2023-04-06T05:09:50;7.28;;;4.35;;
76939;SDS011;65885;55.848;35.916;2023-04-06T05:12:17;8.35;;;5.45;;
76939;SDS011;65885;55.848;35.916;2023-04-06T05:14:46;6.28;;;4.63;;
76939;SDS011;65885;55.848;35.916;2023-04-06T05:17:13;5.93;;;4.85;;
76939;SDS011;65885;55.848;35.916;2023-04-06T05:19:41;6.22;;;4.00;;
76939;SDS011;65885;55.848;35.916;2023-04-06T05:22:08;6.20;;;4.30;;
76939;SDS011;65885;55.848;35.916;2023-04-06T05:24:37;7.10;;;4.57;;
76939;SDS011;65885;55.848;35.916;2023-04-06T05:27:05;6.05;;;4.35;;
76939;SDS011;65885;55.848;35.916;2023-04-06T05:29:33;5.72;;;4.40;;
76939;SDS011;65885;55.848;35.916;2023-04-06T05:32:00;4.60;;;3.55;;
76939;SDS011;65885;55.848;35.916;2023-04-06T05:34:28;5.82;;;4.70;;
76939;SDS011;65885;55.848;35.916;2023-04-06T05:36:56;6.45;;;4.25;;
76939;SDS011;65885;55.848;35.916;2023-04-06T05:39:23;5.90;;;3.88;;
76939;SDS011;65885;55.848;35.916;2023-04-06T05:41:52;5.88;;;4.10;;
76939;SDS011;65885;55.848;35.916;2023-04-06T05:44:20;5.35;;;3.92;;
76939;SDS011;65885;55.848;35.916;2023-04-06T05:46:47;5.63;;;4.00;;
76939;SDS011;65885;55.848;35.916;2023-04-06T05:49:15;6.07;;;4.40;;
76939;SDS011;65885;55.848;35.916;2023-04-06T05:51:42;6.65;;;4.78;;
76939;SDS011;65885;55.848;35.916;2023-04-06T05:54:10;5.43;;;3.70;;
76939;SDS011;65885;55.848;35.916;2023-04-06T05:56:37;6.72;;;4.15;;
76939;SDS011;65885;55.848;35.916;2023-04-06T05:59:06;5.53;;;4.05;;
76939;SDS011;65885;55.848;35.916;2023-04-06T06:01:34;4.78;;;3.75;;
76939;SDS011;65885;55.848;35.916;2023-04-06T06:04:01;6.25;;;4.60;;
76939;SDS011;65885;55.848;35.916;2023-04-06T06:06:29;6.00;;;4.03;;
76939;SDS011;65885;55.848;35.916;2023-04-06T06:08:56;5.57;;;4.13;;
76939;SDS011;65885;55.848;35.916;2023-04-06T06:11:26;4.45;;;3.15;;
76939;SDS011;65885;55.848;35.916;2023-04-06T06:13:54;5.43;;;3.70;;
76939;SDS011;65885;55.848;35.916;2023-04-06T06:16:23;5.10;;;3.47;;
76939;SDS011;65885;55.848;35.916;2023-04-06T06:18:50;5.00;;;3.53;;
76939;SDS011;65885;55.848;35.916;2023-04-06T06:21:18;4.78;;;3.40;;
76939;SDS011;65885;55.848;35.916;2023-04-06T06:23:45;4.90;;;4.38;;
76939;SDS011;65885;55.848;35.916;2023-04-06T06:26:14;7.20;;;3.92;;
76939;SDS011;65885;55.848;35.916;2023-04-06T06:28:42;5.53;;;3.60;;
76939;SDS011;65885;55.848;35.916;2023-04-06T06:31:10;4.93;;;3.60;;
76939;SDS011;65885;55.848;35.916;2023-04-06T06:33:39;5.15;;;4.05;;
76939;SDS011;65885;55.848;35.916;2023-04-06T06:36:06;4.03;;;3.40;;
76939;SDS011;65885;55.848;35.916;2023-04-06T06:38:34;4.57;;;3.80;;
76939;SDS011;65885;55.848;35.916;2023-04-06T06:41:01;4.10;;;3.70;;
76939;SDS011;65885;55.848;35.916;2023-04-06T06:43:29;5.03;;;4.05;;
76939;SDS011;65885;55.848;35.916;2023-04-06T06:45:57;4.90;;;3.92;;
76939;SDS011;65885;55.848;35.916;2023-04-06T06:48:25;4.32;;;3.08;;
76939;SDS011;65885;55.848;35.916;2023-04-06T06:50:54;3.97;;;3.05;;
76939;SDS011;65885;55.848;35.916;2023-04-06T06:53:22;4.72;;;4.10;;
76939;SDS011;65885;55.848;35.916;2023-04-06T06:55:50;5.05;;;3.92;;
76939;SDS011;65885;55.848;35.916;2023-04-06T06:58:18;5.95;;;3.22;;
76939;SDS011;65885;55.848;35.916;2023-04-06T07:00:45;4.07;;;3.33;;
76939;SDS011;65885;55.848;35.916;2023-04-06T07:03:13;4.93;;;3.92;;
76939;SDS011;65885;55.848;35.916;2023-04-06T07:05:44;5.05;;;4.13;;
76939;SDS011;65885;55.848;35.916;2023-04-06T07:08:19;4.93;;;3.50;;
76939;SDS011;65885;55.848;35.916;2023-04-06T07:10:47;5.88;;;3.45;;
76939;SDS011;65885;55.848;35.916;2023-04-06T07:13:16;5.05;;;3.75;;
76939;SDS011;65885;55.848;35.916;2023-04-06T07:15:47;4.63;;;3.55;;
76939;SDS011;65885;55.848;35.916;2023-04-06T07:18:14;5.38;;;3.45;;
76939;SDS011;65885;55.848;35.916;2023-04-06T07:20:42;4.03;;;3.10;;
76939;SDS011;65885;55.848;35.916;2023-04-06T07:23:10;3.80;;;3.40;;
76939;SDS011;65885;55.848;35.916;2023-04-06T07:25:40;4.53;;;3.13;;
76939;SDS011;65885;55.848;35.916;2023-04-06T07:28:07;3.85;;;3.38;;
76939;SDS011;65885;55.848;35.916;2023-04-06T07:30:36;4.70;;;3.25;;
76939;SDS011;65885;55.848;35.916;2023-04-06T07:33:04;3.95;;;2.75;;
76939;SDS011;65885;55.848;35.916;2023-04-06T07:35:32;4.88;;;3.50;;
76939;SDS011;65885;55.848;35.916;2023-04-06T07:38:00;4.32;;;3.05;;
76939;SDS011;65885;55.848;35.916;2023-04-06T07:40:27;4.63;;;3.85;;
76939;SDS011;65885;55.848;35.916;2023-04-06T07:42:58;3.63;;;2.72;;
76939;SDS011;65885;55.848;35.916;2023-04-06T07:45:27;5.35;;;3.65;;
76939;SDS011;65885;55.848;35.916;2023-04-06T07:47:54;4.55;;;3.08;;
76939;SDS011;65885;55.848;35.916;2023-04-06T07:50:22;5.30;;;3.63;;
76939;SDS011;65885;55.848;35.916;2023-04-06T07:52:50;4.15;;;3.75;;
76939;SDS011;65885;55.848;35.916;2023-04-06T07:55:20;4.82;;;3.40;;
76939;SDS011;65885;55.848;35.916;2023-04-06T07:57:48;3.83;;;2.90;;
76939;SDS011;65885;55.848;35.916;2023-04-06T08:00:17;4.38;;;3.00;;
76939;SDS011;65885;55.848;35.916;2023-04-06T08:02:45;5.45;;;2.75;;
76939;SDS011;65885;55.848;35.916;2023-04-06T08:05:13;3.63;;;2.70;;
76939;SDS011;65885;55.848;35.916;2023-04-06T08:07:40;3.63;;;2.75;;
76939;SDS011;65885;55.848;35.916;2023-04-06T08:10:08;3.53;;;3.20;;
76939;SDS011;65885;55.848;35.916;2023-04-06T08:12:38;4.65;;;3.03;;
76939;SDS011;65885;55.848;35.916;2023-04-06T08:15:06;3.63;;;3.00;;
76939;SDS011;65885;55.848;35.916;2023-04-06T08:17:35;4.63;;;3.10;;
76939;SDS011;65885;55.848;35.916;2023-04-06T08:20:03;3.78;;;3.03;;
76939;SDS011;65885;55.848;35.916;2023-04-06T08:22:31;3.55;;;2.25;;
76939;SDS011;65885;55.848;35.916;2023-04-06T08:24:59;3.67;;;2.33;;
76939;SDS011;65885;55.848;35.916;2023-04-06T08:27:28;3.20;;;2.45;;
76939;SDS011;65885;55.848;35.916;2023-04-06T08:29:55;2.70;;;2.47;;
76939;SDS011;65885;55.848;35.916;2023-04-06T08:32:23;4.10;;;2.70;;
76939;SDS011;65885;55.848;35.916;2023-04-06T08:34:54;3.72;;;2.60;;
76939;SDS011;65885;55.848;35.916;2023-04-06T08:37:21;3.42;;;2.30;;
76939;SDS011;65885;55.848;35.916;2023-04-06T08:39:49;3.28;;;2.42;;
76939;SDS011;65885;55.848;35.916;2023-04-06T08:42:19;3.67;;;2.05;;
76939;SDS011;65885;55.848;35.916;2023-04-06T08:44:48;2.50;;;2.30;;
76939;SDS011;65885;55.848;35.916;2023-04-06T08:47:17;2.38;;;2.10;;
76939;SDS011;65885;55.848;35.916;2023-04-06T08:49:46;4.32;;;2.33;;
76939;SDS011;65885;55.848;35.916;2023-04-06T08:52:15;2.67;;;2.45;;
76939;SDS011;65885;55.848;35.916;2023-04-06T08:54:45;2.33;;;2.13;;
76939;SDS011;65885;55.848;35.916;2023-04-06T08:57:12;3.55;;;2.20;;
76939;SDS011;65885;55.848;35.916;2023-04-06T08:59:40;2.53;;;2.05;;
76939;SDS011;65885;55.848;35.916;2023-04-06T09:02:09;2.60;;;1.88;;
76939;SDS011;65885;55.848;35.916;2023-04-06T09:04:44;3.25;;;2.10;;
76939;SDS011;65885;55.848;35.916;2023-04-06T09:07:16;2.97;;;2.00;;
76939;SDS011;65885;55.848;35.916;2023-04-06T09:09:44;2.60;;;1.83;;
76939;SDS011;65885;55.848;35.916;2023-04-06T09:12:22;3.47;;;1.95;;
76939;SDS011;65885;55.848;35.916;2023-04-06T09:14:50;1.95;;;1.67;;
76939;SDS011;65885;55.848;35.916;2023-04-06T09:17:21;2.85;;;2.13;;
76939;SDS011;65885;55.848;35.916;2023-04-06T09:19:48;3.10;;;1.50;;
76939;SDS011;65885;55.848;35.916;2023-04-06T09:22:18;2.30;;;1.73;;
76939;SDS011;65885;55.848;35.916;2023-04-06T09:24:46;2.40;;;1.50;;
76939;SDS011;65885;55.848;35.916;2023-04-06T09:27:15;3.53;;;1.65;;
76939;SDS011;65885;55.848;35.916;2023-04-06T09:29:43;3.03;;;1.50;;
76939;SDS011;65885;55.848;35.916;2023-04-06T09:32:11;4.35;;;1.70;;
76939;SDS011;65885;55.848;35.916;2023-04-06T09:37:14;1.75;;;1.38;;
76939;SDS011;65885;55.848;35.916;2023-04-06T09:39:44;1.63;;;1.23;;
76939;SDS011;65885;55.848;35.916;2023-04-06T09:42:22;3.90;;;1.52;;
76939;SDS011;65885;55.848;35.916;2023-04-06T09:44:54;3.25;;;1.42;;
76939;SDS011;65885;55.848;35.916;2023-04-06T09:47:21;2.22;;;1.80;;
76939;SDS011;65885;55.848;35.916;2023-04-06T09:49:50;3.78;;;1.90;;
76939;SDS011;65885;55.848;35.916;2023-04-06T09:52:22;1.80;;;1.60;;
76939;SDS011;65885;55.848;35.916;2023-04-06T09:54:55;2.33;;;1.42;;
76939;SDS011;65885;55.848;35.916;2023-04-06T09:57:28;2.78;;;1.80;;
76939;SDS011;65885;55.848;35.916;2023-04-06T10:00:01;4.18;;;1.70;;
76939;SDS011;65885;55.848;35.916;2023-04-06T10:02:39;2.65;;;1.75;;
76939;SDS011;65885;55.848;35.916;2023-04-06T10:05:15;3.75;;;1.73;;
76939;SDS011;65885;55.848;35.916;2023-04-06T10:07:46;2.50;;;1.60;;
76939;SDS011;65885;55.848;35.916;2023-04-06T10:10:19;3.63;;;1.92;;
76939;SDS011;65885;55.848;35.916;2023-04-06T10:12:47;2.47;;;1.55;;
76939;SDS011;65885;55.848;35.916;2023-04-06T10:15:15;4.72;;;1.65;;
76939;SDS011;65885;55.848;35.916;2023-04-06T10:17:43;2.83;;;1.77;;
76939;SDS011;65885;55.848;35.916;2023-04-06T10:20:12;2.05;;;1.75;;
76939;SDS011;65885;55.848;35.916;2023-04-06T10:22:49;5.82;;;2.65;;
76939;SDS011;65885;55.848;35.916;2023-04-06T10:25:34;3.08;;;2.20;;
76939;SDS011;65885;55.848;35.916;2023-04-06T10:28:04;3.85;;;1.83;;
76939;SDS011;65885;55.848;35.916;2023-04-06T10:30:34;5.40;;;2.00;;
76939;SDS011;65885;55.848;35.916;2023-04-06T10:33:01;4.65;;;1.70;;
76939;SDS011;65885;55.848;35.916;2023-04-06T10:35:40;2.95;;;1.67;;
76939;SDS011;65885;55.848;35.916;2023-04-06T10:38:07;3.35;;;1.70;;
76939;SDS011;65885;55.848;35.916;2023-04-06T10:40:37;4.57;;;1.98;;
76939;SDS011;65885;55.848;35.916;2023-04-06T10:43:07;3.38;;;1.63;;
76939;SDS011;65885;55.848;35.916;2023-04-06T10:45:36;3.00;;;1.80;;
76939;SDS011;65885;55.848;35.916;2023-04-06T10:48:13;3.53;;;1.70;;
76939;SDS011;65885;55.848;35.916;2023-04-06T10:50:41;5.88;;;2.10;;
76939;SDS011;65885;55.848;35.916;2023-04-06T10:53:10;2.92;;;1.75;;
76939;SDS011;65885;55.848;35.916;2023-04-06T10:55:39;2.80;;;1.85;;
76939;SDS011;65885;55.848;35.916;2023-04-06T10:58:10;3.00;;;2.10;;
76939;SDS011;65885;55.848;35.916;2023-04-06T11:00:43;2.85;;;2.30;;
76939;SDS011;65885;55.848;35.916;2023-04-06T11:03:11;3.50;;;2.05;;
76939;SDS011;65885;55.848;35.916;2023-04-06T11:05:40;4.25;;;1.88;;
76939;SDS011;65885;55.848;35.916;2023-04-06T11:08:21;3.58;;;1.73;;
76939;SDS011;65885;55.848;35.916;2023-04-06T11:10:51;3.03;;;1.70;;
76939;SDS011;65885;55.848;35.916;2023-04-06T11:13:18;3.83;;;1.83;;
76939;SDS011;65885;55.848;35.916;2023-04-06T11:15:45;3.67;;;2.05;;
76939;SDS011;65885;55.848;35.916;2023-04-06T11:18:17;3.65;;;1.85;;
76939;SDS011;65885;55.848;35.916;2023-04-06T11:20:47;3.13;;;1.80;;
76939;SDS011;65885;55.848;35.916;2023-04-06T11:23:21;4.97;;;1.92;;
76939;SDS011;65885;55.848;35.916;2023-04-06T11:25:52;3.75;;;1.92;;
76939;SDS011;65885;55.848;35.916;2023-04-06T11:28:20;4.28;;;1.83;;
76939;SDS011;65885;55.848;35.916;2023-04-06T11:30:47;5.70;;;1.95;;
76939;SDS011;65885;55.848;35.916;2023-04-06T11:33:20;4.65;;;2.10;;
76939;SDS011;65885;55.848;35.916;2023-04-06T11:35:48;2.92;;;1.83;;
76939;SDS011;65885;55.848;35.916;2023-04-06T11:38:17;3.78;;;2.15;;
76939;SDS011;65885;55.848;35.916;2023-04-06T11:40:46;3.90;;;2.20;;
76939;SDS011;65885;55.848;35.916;2023-04-06T11:43:15;3.00;;;1.75;;
76939;SDS011;65885;55.848;35.916;2023-04-06T11:45:42;2.72;;;2.00;;
76939;SDS011;65885;55.848;35.916;2023-04-06T11:48:17;3.97;;;1.88;;
76939;SDS011;65885;55.848;35.916;2023-04-06T11:50:46;3.83;;;1.90;;
76939;SDS011;65885;55.848;35.916;2023-04-06T11:53:14;5.93;;;1.95;;
76939;SDS011;65885;55.848;35.916;2023-04-06T11:55:41;4.07;;;2.10;;
76939;SDS011;65885;55.848;35.916;2023-04-06T11:58:12;5.15;;;2.25;;
76939;SDS011;65885;55.848;35.916;2023-04-06T12:00:43;4.32;;;2.40;;
76939;SDS011;65885;55.848;35.916;2023-04-06T12:03:12;3.10;;;1.85;;
76939;SDS011;65885;55.848;35.916;2023-04-06T12:05:39;5.47;;;2.00;;
76939;SDS011;65885;55.848;35.916;2023-04-06T12:08:07;3.17;;;1.50;;
76939;SDS011;65885;55.848;35.916;2023-04-06T12:10:34;3.33;;;2.20;;
76939;SDS011;65885;55.848;35.916;2023-04-06T12:13:03;3.70;;;1.80;;
76939;SDS011;65885;55.848;35.916;2023-04-06T12:15:31;3.17;;;2.00;;
76939;SDS011;65885;55.848;35.916;2023-04-06T12:18:00;2.38;;;1.77;;
76939;SDS011;65885;55.848;35.916;2023-04-06T12:20:30;2.60;;;2.10;;
76939;SDS011;65885;55.848;35.916;2023-04-06T12:22:58;2.42;;;1.80;;
76939;SDS011;65885;55.848;35.916;2023-04-06T12:25:25;2.72;;;1.85;;
76939;SDS011;65885;55.848;35.916;2023-04-06T12:27:53;3.97;;;2.35;;
76939;SDS011;65885;55.848;35.916;2023-04-06T12:30:21;2.63;;;2.33;;
76939;SDS011;65885;55.848;35.916;2023-04-06T12:32:50;3.80;;;1.73;;
76939;SDS011;65885;55.848;35.916;2023-04-06T12:35:18;3.58;;;2.30;;
76939;SDS011;65885;55.848;35.916;2023-04-06T12:37:47;5.20;;;1.70;;
76939;SDS011;65885;55.848;35.916;2023-04-06T12:40:14;2.72;;;1.90;;
76939;SDS011;65885;55.848;35.916;2023-04-06T12:42:43;3.85;;;2.03;;
76939;SDS011;65885;55.848;35.916;2023-04-06T12:45:11;3.20;;;1.83;;
76939;SDS011;65885;55.848;35.916;2023-04-06T12:47:39;3.53;;;1.92;;
76939;SDS011;65885;55.848;35.916;2023-04-06T12:50:06;3.50;;;2.10;;
76939;SDS011;65885;55.848;35.916;2023-04-06T12:52:36;4.30;;;1.83;;
76939;SDS011;65885;55.848;35.916;2023-04-06T12:55:04;3.92;;;1.70;;
76939;SDS011;65885;55.848;35.916;2023-04-06T12:57:32;2.63;;;1.83;;
76939;SDS011;65885;55.848;35.916;2023-04-06T13:00:00;4.05;;;2.25;;
76939;SDS011;65885;55.848;35.916;2023-04-06T13:02:30;2.15;;;1.65;;
76939;SDS011;65885;55.848;35.916;2023-04-06T13:04:58;3.13;;;1.80;;
76939;SDS011;65885;55.848;35.916;2023-04-06T13:07:26;2.20;;;1.60;;
76939;SDS011;65885;55.848;35.916;2023-04-06T13:09:55;2.00;;;1.80;;
76939;SDS011;65885;55.848;35.916;2023-04-06T13:12:23;6.13;;;2.17;;
76939;SDS011;65885;55.848;35.916;2023-04-06T13:14:51;2.53;;;1.73;;
76939;SDS011;65885;55.848;35.916;2023-04-06T13:17:19;4.63;;;1.80;;
76939;SDS011;65885;55.848;35.916;2023-04-06T13:19:46;2.85;;;1.75;;
76939;SDS011;65885;55.848;35.916;2023-04-06T13:22:14;4.20;;;2.10;;
76939;SDS011;65885;55.848;35.916;2023-04-06T13:24:41;2.40;;;2.00;;
76939;SDS011;65885;55.848;35.916;2023-04-06T13:27:10;2.67;;;2.30;;
76939;SDS011;65885;55.848;35.916;2023-04-06T13:29:38;3.00;;;2.03;;
76939;SDS011;65885;55.848;35.916;2023-04-06T13:32:06;2.72;;;1.70;;
76939;SDS011;65885;55.848;35.916;2023-04-06T13:34:35;3.08;;;2.00;;
76939;SDS011;65885;55.848;35.916;2023-04-06T13:37:03;4.13;;;1.90;;
76939;SDS011;65885;55.848;35.916;2023-04-06T13:39:31;5.40;;;2.45;;
76939;SDS011;65885;55.848;35.916;2023-04-06T13:42:00;2.60;;;1.92;;
76939;SDS011;65885;55.848;35.916;2023-04-06T13:44:29;1.88;;;1.67;;
76939;SDS011;65885;55.848;35.916;2023-04-06T13:46:57;2.83;;;2.30;;
76939;SDS011;65885;55.848;35.916;2023-04-06T13:49:24;6.78;;;1.95;;
76939;SDS011;65885;55.848;35.916;2023-04-06T13:54:22;2.38;;;1.80;;
76939;SDS011;65885;55.848;35.916;2023-04-06T13:56:51;2.58;;;1.80;;
76939;SDS011;65885;55.848;35.916;2023-04-06T13:59:18;2.90;;;1.77;;
76939;SDS011;65885;55.848;35.916;2023-04-06T14:01:51;2.25;;;1.60;;
76939;SDS011;65885;55.848;35.916;2023-04-06T14:04:19;2.58;;;2.08;;
76939;SDS011;65885;55.848;35.916;2023-04-06T14:06:46;2.83;;;2.00;;
76939;SDS011;65885;55.848;35.916;2023-04-06T14:09:13;2.70;;;2.15;;
76939;SDS011;65885;55.848;35.916;2023-04-06T14:11:41;1.80;;;1.52;;
76939;SDS011;65885;55.848;35.916;2023-04-06T14:14:08;5.72;;;2.10;;
76939;SDS011;65885;55.848;35.916;2023-04-06T14:16:36;3.75;;;1.70;;
76939;SDS011;65885;55.848;35.916;2023-04-06T14:19:05;2.30;;;1.75;;
76939;SDS011;65885;55.848;35.916;2023-04-06T14:21:44;2.88;;;2.10;;
76939;SDS011;65885;55.848;35.916;2023-04-06T14:24:29;2.20;;;1.40;;
76939;SDS011;65885;55.848;35.916;2023-04-06T14:26:56;2.15;;;1.90;;
76939;SDS011;65885;55.848;35.916;2023-04-06T14:29:24;3.45;;;1.58;;
76939;SDS011;65885;55.848;35.916;2023-04-06T14:31:51;3.47;;;1.80;;
76939;SDS011;65885;55.848;35.916;2023-04-06T14:34:26;3.00;;;2.03;;
76939;SDS011;65885;55.848;35.916;2023-04-06T14:36:53;2.53;;;1.67;;
76939;SDS011;65885;55.848;35.916;2023-04-06T14:39:22;3.15;;;1.70;;
76939;SDS011;65885;55.848;35.916;2023-04-06T14:41:49;5.30;;;1.92;;
76939;SDS011;65885;55.848;35.916;2023-04-06T14:44:17;3.00;;;1.80;;
76939;SDS011;65885;55.848;35.916;2023-04-06T14:46:44;1.77;;;1.48;;